• Join FlightAware (Why Join?)
  • Login
  • US Flag 
Gobble Gobble! 
05:57AM EST


 

Airport Tracker/Info


-or-


 

Live Flight TrackerFlight Track Log ✈ XOJ552 ✈ 25-Jan-2014 ✈ KSRQ - KCLE

Flight Track Log - Related Links

Times and Time Zones

All times are in EST time to prevent confusion due to time zone crossing. See the XOJ552 flight status page for this flight to view local times or setup timezone preferences in your user account.

Time Position Orientation Groundspeed Altitude Reporting Facility
EST Latitude Longitude Course Direction KTS MPH feet Rate Location/Type
09:29AM 27.3833 -82.5500 138° Southeast 173 199 900  Level Tampa TRACON
09:30AM 27.3500 -82.5167 138° Southeast 203 234 3,400 3,540 Climbing Tampa TRACON
09:31AM 27.3000 -82.5167 180° South 241 277 7,700 3,780 Climbing Tampa TRACON
09:32AM 27.3333 -82.5833 299° West 264 304 11,400 2,400 Climbing Tampa TRACON
09:34AM 27.4592 -82.7747 307° West 310 357 15,900 2,460 Climbing Miami Center
09:35AM 27.5525 -82.7867 354° North 317 365 19,700 2,040 Climbing Miami Center
09:36AM 27.6586 -82.7897 359° North 342 394 20,000 180 Climbing Miami Center
09:38AM 27.8369 -82.7917 359° North 389 448 20,200 960 Climbing Jacksonville Center
09:39AM 27.9453 -82.7892 North 389 448 22,600 2,340 Climbing Jacksonville Center
09:40AM 28.0581 -82.7892 360° North 389 448 24,900 1,200 Climbing Jacksonville Center
09:41AM 28.1686 -82.7867 North 394 453 25,000 540 Climbing Jacksonville Center
09:42AM 28.2856 -82.7864 360° North 404 465 26,000 480 Climbing Jacksonville Center
09:43AM 28.4003 -82.7864 360° North 404 465 26,000 360 Level Jacksonville Center
09:44AM 28.5089 -82.8194 345° North 404 465 26,800 1,620 Climbing Jacksonville Center
09:45AM 28.6153 -82.8569 343° North 398 458 29,300 2,100 Climbing Jacksonville Center
09:46AM 28.7281 -82.8617 358° North 398 458 31,000 1,440 Climbing Jacksonville Center
09:47AM 28.8511 -82.8569 North 410 472 32,200 1,200 Climbing Jacksonville Center
09:48AM 28.9764 -82.8500 North 434 499 33,400 1,260 Climbing Jacksonville Center
09:49AM 29.1058 -82.8428 North 450 518 34,800 1,620 Climbing Jacksonville Center
09:50AM 29.2311 -82.8356 North 456 525 36,700 1,740 Climbing Jacksonville Center
09:51AM 29.3519 -82.8283 North 451 519 38,300 1,260 Climbing Jacksonville Center
09:52AM 29.4731 -82.8211 North 440 506 39,300 840 Climbing Jacksonville Center
09:53AM 29.5964 -82.8208 360° North 440 506 40,000 600 Climbing Jacksonville Center
09:54AM 29.7175 -82.8136 North 440 506 40,500 480 Climbing Jacksonville Center
09:55AM 29.8447 -82.8064 North 440 506 41,000 360 Climbing Jacksonville Center
09:56AM 29.9681 -82.7967 North 440 506 41,300 360 Climbing Jacksonville Center
09:57AM 30.1100 -82.7869 North 446 513 41,800 360 Climbing Jacksonville Center
09:58AM 30.2394 -82.7794 North 453 521 42,100 420 Climbing Jacksonville Center
09:59AM 30.3689 -82.7722 North 458 527 42,700 420 Climbing Jacksonville Center
10:00AM 30.4961 -82.7647 North 458 527 43,000 120 Climbing Jacksonville Center
10:01AM 30.6089 -82.7622 North 458 527 43,000  Level Jacksonville Center
10:02AM 30.7342 -82.7525 North 453 521 43,000  Level Jacksonville Center
10:03AM 30.8572 -82.7450 North 453 521 43,000  Level Jacksonville Center
10:04AM 30.9825 -82.7400 North 453 521 43,000  Level Jacksonville Center
10:05AM 31.1078 -82.7325 North 448 516 43,000  Level Jacksonville Center
10:06AM 31.2311 -82.7225 North 448 516 43,000  Level Jacksonville Center
10:08AM 31.4556 -82.7122 North 458 527 43,000  Level Atlanta Center
10:09AM 31.5828 -82.7053 North 458 527 43,000  Level Atlanta Center
10:10AM 31.7081 -82.6986 North 458 527 43,000  Level Atlanta Center
10:11AM 31.8372 -82.6894 North 465 535 43,000  Level Atlanta Center
10:12AM 31.9625 -82.6828 North 465 535 43,000  Level Atlanta Center
10:13AM 32.0897 -82.6758 North 459 528 43,000  Level Atlanta Center
10:14AM 32.2147 -82.6667 North 459 528 43,000  Level Atlanta Center
10:15AM 32.3419 -82.6597 North 459 528 43,000  Level Atlanta Center
10:16AM 32.4653 -82.6528 North 454 522 43,000  Level Atlanta Center
10:17AM 32.5883 -82.6458 North 447 514 43,000  Level Atlanta Center
10:18AM 32.7133 -82.6342 North 441 507 43,000  Level Atlanta Center
10:19AM 32.8386 -82.6272 North 441 507 43,000  Level Atlanta Center
10:20AM 32.9658 -82.6203 North 441 507 43,000  Level Atlanta Center
10:21AM 33.0908 -82.6131 North 446 513 43,000  Level Atlanta Center
10:22AM 33.2203 -82.6061 North 451 519 43,000  Level Atlanta Center
10:23AM 33.3600 -82.5964 North 457 526 43,000  Level Atlanta Center
10:24AM 33.4892 -82.5892 North 457 526 43,000  Level Atlanta Center
10:25AM 33.6186 -82.5844 North 466 536 43,000  Level Atlanta Center
10:26AM 33.7481 -82.5747 North 461 531 43,000  Level Atlanta Center
10:27AM 33.8669 -82.5678 North 461 531 43,000  Level Atlanta Center
10:28AM 33.9961 -82.5581 North 461 531 43,000  Level Atlanta Center
10:29AM 34.1400 -82.5506 North 468 539 43,000  Level Atlanta Center
10:30AM 34.2714 -82.5456 North 468 539 43,000  Level Atlanta Center
10:31AM 34.4028 -82.5358 North 468 539 43,000  Level Atlanta Center
10:32AM 34.5364 -82.5258 North 474 545 43,000  Level Atlanta Center
10:33AM 34.6656 -82.5211 North 474 545 43,000  Level Atlanta Center
10:34AM 34.7989 -82.5083 North 474 545 43,000  Level Atlanta Center
10:35AM 34.9325 -82.4983 North 474 545 43,000  Level Atlanta Center
10:36AM 35.0639 -82.4933 North 474 545 43,000  Level Atlanta Center
10:37AM 35.1931 -82.4858 North 474 545 43,000  Level Atlanta Center
10:38AM 35.3244 -82.4808 North 474 545 43,000  Level Atlanta Center
10:39AM 35.4558 -82.4683 North 474 545 43,000  Level Atlanta Center
10:40AM 35.5892 -82.4606 North 474 545 43,000  Level Atlanta Center
10:41AM 35.7225 -82.4528 North 474 545 43,000  Level Atlanta Center
10:42AM 35.8350 -82.4431 North 468 539 43,000  Level Atlanta Center
10:43AM 35.9644 -82.4328 North 463 533 43,000  Level Atlanta Center
10:44AM 36.0956 -82.4250 North 463 533 43,000  Level Atlanta Center
10:45AM 36.2269 -82.4172 North 463 533 43,000  Level Atlanta Center
10:46AM 36.3583 -82.4094 North 463 533 43,000  Level Atlanta Center
10:48AM 36.6633 -82.3897 North 468 539 43,000  Level Indianapolis Center
10:49AM 36.7925 -82.3806 North 467 537 43,000  Level Indianapolis Center
10:50AM 36.9203 -82.3731 North 464 534 43,000  Level Indianapolis Center
10:51AM 37.0469 -82.3636 North 459 528 43,000  Level Indianapolis Center
10:52AM 37.1950 -82.3544 North 458 527 43,000  Level Indianapolis Center
10:53AM 37.3211 -82.3469 North 454 522 43,000  Level Indianapolis Center
10:54AM 37.4486 -82.3383 North 457 526 43,000  Level Indianapolis Center
10:55AM 37.5758 -82.3289 North 457 526 43,000  Level Indianapolis Center
10:56AM 37.7031 -82.3214 North 455 524 43,000  Level Indianapolis Center
10:57AM 37.8317 -82.3111 North 461 531 43,000  Level Indianapolis Center
10:58AM 37.9592 -82.3019 North 459 528 43,000 -600 Level Indianapolis Center
10:59AM 38.0861 -82.2933 North 456 525 41,900 -1,320 Descending Indianapolis Center
11:00AM 38.2242 -82.2842 North 457 526 40,400 -1,560 Descending Indianapolis Center
11:01AM 38.3533 -82.2758 North 460 529 38,800 -1,500 Descending Indianapolis Center
11:02AM 38.4786 -82.2667 North 449 517 37,400 -1,440 Descending Indianapolis Center
11:03AM 38.6044 -82.2583 North 448 516 35,900 -1,440 Descending Indianapolis Center
11:04AM 38.7306 -82.2497 North 449 517 34,500 -960 Descending Indianapolis Center
11:05AM 38.8578 -82.2406 North 453 521 34,000 -300 Descending Indianapolis Center
11:06AM 38.9861 -82.2319 North 456 525 34,000  Level Indianapolis Center
11:07AM 39.1142 -82.2239 North 456 525 34,000  Level Indianapolis Center
11:08AM 39.2425 -82.2144 North 459 528 34,000 -960 Level Indianapolis Center
11:10AM 39.3694 -82.2058 North 454 522 32,100 -2,220 Descending Indianapolis Center
11:11AM 39.5053 -82.1969 North 454 522 29,500 -2,460 Descending Indianapolis Center
11:12AM 39.6314 -82.1872 North 454 522 27,100 -2,340 Descending Indianapolis Center
11:13AM 39.7492 -82.1786 North 431 496 24,800 -1,980 Descending Indianapolis Center
11:14AM 39.8697 -82.1697 North 435 501 23,100 -1,440 Descending Indianapolis Center
11:15AM 39.9839 -82.1614 North 418 481 21,900 -1,260 Descending Indianapolis Center
11:16AM 40.0978 -82.1533 North 413 475 20,600 -1,380 Descending Indianapolis Center
11:17AM 40.2317 -82.1428 North 404 465 19,100 -1,440 Descending Indianapolis Center
11:18AM 40.3281 -82.1367 North 396 456 17,700 -1,320 Descending Indianapolis Center
11:19AM 40.4389 -82.1306 North 394 453 16,500 -1,320 Descending Indianapolis Center
11:20AM 40.5556 -82.0311 33° Northeast 423 487 15,100 -720 Descending Indianapolis Center
11:21AM 40.6447 -81.9425 37° Northeast 406 467 15,100 -480 Level Indianapolis Center
11:21AM 40.6900 -81.8972 37° Northeast 398 458 14,400 -1,500 Descending Cleveland Center
11:22AM 40.7403 -81.8472 37° Northeast 404 465 13,500 -1,680 Descending Cleveland Center
11:22AM 40.7803 -81.8086 36° Northeast 401 461 12,700 -1,620 Descending Cleveland Center
11:23AM 40.8283 -81.7592 38° Northeast 396 456 11,900 -1,620 Descending Cleveland Center
11:23AM 40.8689 -81.7203 36° Northeast 400 460 11,100 -1,500 Descending Cleveland Center
11:24AM 40.9117 -81.6758 38° Northeast 376 433 10,400 -1,020 Descending Cleveland Center
11:24AM 40.9503 -81.6389 36° Northeast 368 423 10,100 -420 Descending Cleveland Center
11:25AM 41.0017 -81.6319 North 337 388 10,000 -120 Descending Cleveland Center
11:25AM 41.0422 -81.6461 345° North 335 386 10,000 -240 Level Cleveland Center
11:26AM 41.0850 -81.6644 342° North 301 346 9,800 -1,020 Descending Cleveland Center
11:26AM 41.1219 -81.6764 346° North 293 337 9,000 -1,740 Descending Cleveland Center
11:27AM 41.1600 -81.6931 342° North 268 308 8,100 -1,800 Descending Cleveland Center
11:27AM 41.1956 -81.6997 352° North 275 316 7,200 -1,140 Descending Cleveland Center
11:28AM 41.2325 -81.7047 354° North 263 303 7,000 -240 Descending Cleveland Center
11:28AM 41.2706 -81.7058 359° North 265 305 7,000 -720 Level Cleveland Center
11:29AM 41.3094 -81.7117 354° North 257 296 6,300 -1,620 Descending Cleveland Center
11:29AM 41.3433 -81.7125 359° North 252 290 5,400 -1,320 Descending Cleveland Center
11:30AM 41.3814 -81.7064 North 253 291 5,000 -420 Descending Cleveland Center
11:30AM 41.4056 -81.6706 48° Northeast 260 299 5,000 -300 Level Cleveland Center
11:31AM 41.4253 -81.6381 51° Northeast 245 282 4,700 -900 Descending Cleveland Center
11:31AM 41.4489 -81.6033 48° Northeast 246 283 4,100 -720 Descending Cleveland Center
11:32AM 41.4714 -81.5925 20° North 201 231 4,000 -420 Descending Cleveland Center
11:32AM 41.4956 -81.6061 337° Northwest 197 227 3,700 -840 Descending Cleveland Center
11:33AM 41.5172 -81.6194 335° Northwest 165 190 3,200 -720 Descending Cleveland Center
11:33AM 41.5339 -81.6400 317° Northwest 187 215 3,000 -240 Descending Cleveland Center
11:34AM 41.5300 -81.6633 257° West 137 158 3,000  Level Cleveland Center
11:34AM 41.5192 -81.6869 239° Southwest 154 177 3,000  Level Cleveland Center
11:35AM 41.5075 -81.7044 228° Southwest 133 153 3,000  Level Cleveland Center
11:35AM 41.4931 -81.7250 227° Southwest 142 163 3,000  Level Cleveland Center
11:36AM 41.4831 -81.7422 232° Southwest 136 157 3,000 -300 Level Cleveland Center
11:37AM 41.4714 -81.7597 228° Southwest 131 151 2,700 -540 Descending Cleveland Center
11:37AM 41.4633 -81.7728 231° Southwest 96 110 2,500 -600 Descending Cleveland Center
11:38AM 41.4536 -81.7872 228° Southwest 109 125 2,100 -720 Descending Cleveland Center
11:38AM 41.4439 -81.8031 231° Southwest 108 124 1,800 -600 Descending Cleveland Center
11:39AM 41.4350 -81.8172 230° Southwest 107 123 1,500 -600 Descending Cleveland Center
11:39AM 41.4239 -81.8361 232° Southwest 113 130 1,200 -600 Descending Cleveland Center
11:40AM 41.4147 -81.8494 227° Southwest 108 124 900 -540 Descending Cleveland Center